Albrightsville, Pennsylvania
Current Conditions -  °F | °C
As of 10:53 PM on Saturday 25 Oct 2014 (Local Time) from KMPO Reporting Station
Light Rain Light Rain  
Wind Chill: 13°   Ceiling: 3900
Heat Index: 13°   Visibility: 9mi
Dew Point:   Wind: 8mph
Humidity: 72%   Direction: 320°NW
Pressure: 29.61"   Gusts: NA
Location:  41°N, 75.53°W
Report Text: KMPO 260253Z AUTO 32007KT 9SM -RA SCT030 BKN039 OVC060 13/08 A2961 RMK AO2 RAB41 SLP024 P0000 60000 T01330083 56011
Loading
Personal Weather Stations






























Interactive Weather Map New forecast layout! Learn more

10-Day Weather Forecast

Advertisements
Track Severe Weather on mobile